createdAt,value
2023-02-19T00:01:27.644Z,3.47
2023-02-19T00:03:54.842Z,3.28
2023-02-19T00:06:21.306Z,4.03
2023-02-19T00:08:47.353Z,3.10
2023-02-19T00:11:14.598Z,3.17
2023-02-19T00:13:44.640Z,3.38
2023-02-19T00:16:15.162Z,3.35
2023-02-19T00:18:41.602Z,3.33
2023-02-19T00:21:07.538Z,3.08
2023-02-19T00:23:33.700Z,3.65
2023-02-19T00:26:16.205Z,3.55
2023-02-19T00:28:43.864Z,3.20
2023-02-19T00:31:14.512Z,3.22
2023-02-19T00:36:06.541Z,3.72
2023-02-19T00:38:36.052Z,3.75
2023-02-19T00:41:18.243Z,3.80
2023-02-19T00:43:46.749Z,3.78
2023-02-19T00:46:12.612Z,3.45
2023-02-19T00:48:38.426Z,4.20
2023-02-19T00:51:04.309Z,3.70
2023-02-19T00:53:30.057Z,3.70
2023-02-19T00:55:55.793Z,4.43
2023-02-19T00:58:21.528Z,3.13
2023-02-19T01:00:47.249Z,3.35
2023-02-19T01:03:13.008Z,2.90
2023-02-19T01:05:38.851Z,2.83
2023-02-19T01:08:04.642Z,2.40
2023-02-19T01:10:30.521Z,2.47
2023-02-19T01:12:56.328Z,2.10
2023-02-19T01:15:22.148Z,2.15
2023-02-19T01:17:48.225Z,2.55
2023-02-19T01:20:13.972Z,1.73
2023-02-19T01:22:39.714Z,2.55
2023-02-19T01:25:05.659Z,2.13
2023-02-19T01:27:31.378Z,2.20
2023-02-19T01:29:57.106Z,2.33
2023-02-19T01:32:23.042Z,1.60
2023-02-19T01:34:48.815Z,2.08
2023-02-19T01:37:14.677Z,1.90
2023-02-19T01:39:40.461Z,1.85
2023-02-19T01:42:11.294Z,1.60
2023-02-19T01:47:02.705Z,1.92
2023-02-19T01:49:30.514Z,2.05
2023-02-19T01:51:59.201Z,1.85
2023-02-19T01:54:26.131Z,1.65
2023-02-19T01:56:53.723Z,2.28
2023-02-19T01:59:19.559Z,1.60
2023-02-19T02:01:45.392Z,2.17
2023-02-19T02:04:12.728Z,2.92
2023-02-19T02:06:49.485Z,1.45
2023-02-19T02:09:34.843Z,2.70
2023-02-19T02:12:00.577Z,1.75
2023-02-19T02:14:28.336Z,1.60
2023-02-19T02:16:54.049Z,2.00
2023-02-19T02:19:38.658Z,2.03
2023-02-19T02:22:04.374Z,2.17
2023-02-19T02:24:40.600Z,1.52
2023-02-19T02:27:17.461Z,1.80
2023-02-19T02:29:46.204Z,1.52
2023-02-19T02:32:14.848Z,1.30
2023-02-19T02:34:55.608Z,1.48
2023-02-19T02:37:22.907Z,1.73
2023-02-19T02:39:48.987Z,2.08
2023-02-19T02:42:27.042Z,2.15
2023-02-19T02:45:11.866Z,2.83
2023-02-19T02:47:41.283Z,2.58
2023-02-19T02:50:11.085Z,2.72
2023-02-19T02:52:56.812Z,2.77
2023-02-19T02:55:23.489Z,3.63
2023-02-19T02:57:49.249Z,3.55
2023-02-19T03:00:15.052Z,3.80
2023-02-19T03:02:41.816Z,4.07
2023-02-19T03:05:39.626Z,4.88
2023-02-19T03:08:11.026Z,4.70
2023-02-19T03:10:54.904Z,4.25
2023-02-19T03:13:47.467Z,4.32
2023-02-19T03:16:35.643Z,3.83
2023-02-19T03:19:18.476Z,4.57
2023-02-19T03:21:58.384Z,3.08
2023-02-19T03:24:46.510Z,3.43
2023-02-19T03:27:13.367Z,2.17
2023-02-19T03:29:40.082Z,3.55
2023-02-19T03:32:12.829Z,2.83
2023-02-19T03:34:46.132Z,3.30
2023-02-19T03:37:13.810Z,2.30
2023-02-19T03:39:43.711Z,2.15
2023-02-19T03:42:18.401Z,2.63
2023-02-19T03:44:46.922Z,3.20
2023-02-19T03:47:18.752Z,2.47
2023-02-19T03:49:55.670Z,3.25
2023-02-19T03:52:40.009Z,2.85
2023-02-19T03:55:07.563Z,2.67
2023-02-19T03:57:38.079Z,2.80
2023-02-19T04:00:16.173Z,3.22
2023-02-19T04:02:41.908Z,3.30
2023-02-19T04:05:14.143Z,3.47
2023-02-19T04:07:41.892Z,1.77
2023-02-19T04:10:08.559Z,2.33
2023-02-19T04:12:35.826Z,3.65
2023-02-19T04:15:06.684Z,3.05
2023-02-19T04:17:38.292Z,2.47
2023-02-19T04:20:07.143Z,2.75
2023-02-19T04:22:34.156Z,3.58
2023-02-19T04:25:00.288Z,2.63
2023-02-19T04:27:26.143Z,2.55
2023-02-19T04:29:51.881Z,2.00
2023-02-19T04:32:17.618Z,2.00
2023-02-19T04:34:43.360Z,2.53
2023-02-19T04:37:09.071Z,2.55
2023-02-19T04:39:34.909Z,1.98
2023-02-19T04:42:00.721Z,2.20
2023-02-19T04:44:26.465Z,2.38
2023-02-19T04:46:52.182Z,2.05
2023-02-19T04:49:17.921Z,2.13
2023-02-19T04:51:43.635Z,3.30
2023-02-19T04:54:09.355Z,2.58
2023-02-19T04:56:35.077Z,2.25
2023-02-19T04:59:00.784Z,2.67
2023-02-19T05:01:26.581Z,2.20
2023-02-19T05:03:52.338Z,2.08
2023-02-19T05:06:18.092Z,2.33
2023-02-19T05:08:43.804Z,2.85
2023-02-19T05:11:11.270Z,2.90
2023-02-19T05:13:37.820Z,3.80
2023-02-19T05:16:05.703Z,2.60
2023-02-19T05:18:31.839Z,2.97
2023-02-19T05:20:58.423Z,2.77
2023-02-19T05:23:24.552Z,3.45
2023-02-19T05:25:50.267Z,2.17
2023-02-19T05:28:19.028Z,4.40
2023-02-19T05:30:46.108Z,1.65
2023-02-19T05:33:13.143Z,3.13
2023-02-19T05:35:43.308Z,3.83
2023-02-19T05:38:09.073Z,3.35
2023-02-19T05:40:34.873Z,3.58
2023-02-19T05:43:00.594Z,2.97
2023-02-19T05:45:26.345Z,2.63
2023-02-19T05:47:52.051Z,3.00
2023-02-19T05:50:17.875Z,2.65
2023-02-19T05:52:43.601Z,2.45
2023-02-19T05:55:09.835Z,3.50
2023-02-19T05:57:43.663Z,2.22
2023-02-19T06:00:10.448Z,2.17
2023-02-19T06:02:36.734Z,4.07
2023-02-19T06:05:02.792Z,2.20
2023-02-19T06:07:29.511Z,2.42
2023-02-19T06:09:55.236Z,2.25
2023-02-19T06:12:21.002Z,2.60
2023-02-19T06:14:47.095Z,2.33
2023-02-19T06:17:12.859Z,2.20
2023-02-19T06:19:38.641Z,2.22
2023-02-19T06:22:04.411Z,2.67
2023-02-19T06:24:30.136Z,2.47
2023-02-19T06:26:55.963Z,3.55
2023-02-19T06:29:21.677Z,2.30
2023-02-19T06:31:47.498Z,2.67
2023-02-19T06:34:13.278Z,2.47
2023-02-19T06:36:39.049Z,2.63
2023-02-19T06:39:05.242Z,2.38
2023-02-19T06:41:30.963Z,2.97
2023-02-19T06:43:57.087Z,2.22
2023-02-19T06:46:22.864Z,3.28
2023-02-19T06:48:48.644Z,2.83
2023-02-19T06:51:15.647Z,2.75
2023-02-19T06:53:41.362Z,2.78
2023-02-19T06:56:20.364Z,3.08
2023-02-19T06:58:46.156Z,3.33
2023-02-19T07:01:12.227Z,4.00
2023-02-19T07:03:38.164Z,3.10
2023-02-19T07:06:04.034Z,5.47
2023-02-19T07:08:30.032Z,3.13
2023-02-19T07:10:58.795Z,3.13
2023-02-19T07:13:26.030Z,3.35
2023-02-19T07:15:52.536Z,3.63
2023-02-19T07:18:18.281Z,2.65
2023-02-19T07:20:44.063Z,2.60
2023-02-19T07:23:09.844Z,3.80
2023-02-19T07:25:36.907Z,2.80
2023-02-19T07:28:02.972Z,3.30
2023-02-19T07:30:28.902Z,2.83
2023-02-19T07:32:54.640Z,2.45
2023-02-19T07:35:25.579Z,3.63
2023-02-19T07:37:54.019Z,2.88
2023-02-19T07:40:19.822Z,2.70
2023-02-19T07:42:45.606Z,2.78
2023-02-19T07:45:11.348Z,2.97
2023-02-19T07:47:37.067Z,2.13
2023-02-19T07:50:02.808Z,2.17
2023-02-19T07:52:28.589Z,2.72
2023-02-19T07:54:54.348Z,2.45
2023-02-19T07:57:20.059Z,2.20
2023-02-19T07:59:45.796Z,2.50
2023-02-19T08:02:39.968Z,2.58
2023-02-19T08:05:06.094Z,2.95
2023-02-19T08:07:32.528Z,2.30
2023-02-19T08:10:21.491Z,2.35
2023-02-19T08:13:18.633Z,3.22
2023-02-19T08:15:45.035Z,3.42
2023-02-19T08:18:11.467Z,2.45
2023-02-19T08:20:37.334Z,2.50
2023-02-19T08:23:03.321Z,2.28
2023-02-19T08:25:29.120Z,2.70
2023-02-19T08:27:55.073Z,2.53
2023-02-19T08:30:21.264Z,3.30
2023-02-19T08:32:47.048Z,2.30
2023-02-19T08:35:12.811Z,1.92
2023-02-19T08:37:38.581Z,1.73
2023-02-19T08:40:04.574Z,1.83
2023-02-19T08:42:30.543Z,2.00
2023-02-19T08:44:56.462Z,2.83
2023-02-19T08:47:22.271Z,2.45
2023-02-19T08:49:48.029Z,1.95
2023-02-19T08:52:13.789Z,1.63
2023-02-19T08:54:39.585Z,1.45
2023-02-19T08:57:05.353Z,2.17
2023-02-19T08:59:31.254Z,1.80
2023-02-19T09:01:59.887Z,1.83
2023-02-19T09:04:30.631Z,1.42
2023-02-19T09:09:22.269Z,1.85
2023-02-19T09:11:49.359Z,1.58
2023-02-19T09:14:15.664Z,1.30
2023-02-19T09:16:41.401Z,2.00
2023-02-19T09:19:08.015Z,1.10
2023-02-19T09:21:33.994Z,1.50
2023-02-19T09:23:59.712Z,1.80
2023-02-19T09:26:25.526Z,1.58
2023-02-19T09:28:51.466Z,1.50
2023-02-19T09:31:17.412Z,2.30
2023-02-19T09:33:43.731Z,2.20
2023-02-19T09:36:10.165Z,1.77
2023-02-19T09:38:35.951Z,2.05
2023-02-19T09:41:34.634Z,1.20
2023-02-19T09:44:01.640Z,2.70
2023-02-19T09:46:30.162Z,1.90
2023-02-19T09:49:01.669Z,1.20
2023-02-19T09:51:27.894Z,1.48
2023-02-19T09:53:54.786Z,1.73
2023-02-19T09:56:20.806Z,1.50
2023-02-19T09:58:48.186Z,1.30
2023-02-19T10:01:14.741Z,1.13
2023-02-19T10:03:46.512Z,1.42
2023-02-19T10:06:25.490Z,1.27
2023-02-19T10:08:52.508Z,1.15
2023-02-19T10:11:18.801Z,1.10
2023-02-19T10:13:50.092Z,1.00
2023-02-19T10:16:18.741Z,1.10
2023-02-19T10:18:45.251Z,1.55
2023-02-19T10:21:13.698Z,1.05
2023-02-19T10:23:40.400Z,1.33
2023-02-19T10:26:06.343Z,1.08
2023-02-19T10:28:35.797Z,1.00
2023-02-19T10:31:05.334Z,0.95
2023-02-19T10:33:31.435Z,1.60
2023-02-19T10:35:58.485Z,1.05
2023-02-19T10:38:30.260Z,1.23
2023-02-19T10:41:12.943Z,1.50
2023-02-19T10:43:41.576Z,0.80
2023-02-19T10:46:13.390Z,2.45
2023-02-19T10:48:41.787Z,1.50
2023-02-19T10:51:08.916Z,1.02
2023-02-19T10:53:41.109Z,1.65
2023-02-19T10:56:08.515Z,1.27
2023-02-19T10:58:36.720Z,0.80
2023-02-19T11:01:22.168Z,1.17
2023-02-19T11:04:17.584Z,1.05
2023-02-19T11:06:44.866Z,0.90
2023-02-19T11:09:23.970Z,1.02
2023-02-19T11:11:53.666Z,1.05
2023-02-19T11:14:22.161Z,1.48
2023-02-19T11:16:51.329Z,0.65
2023-02-19T11:19:26.031Z,1.25
2023-02-19T11:21:52.095Z,0.90
2023-02-19T11:24:36.919Z,1.08
2023-02-19T11:27:05.139Z,0.77
2023-02-19T11:29:34.278Z,3.60
2023-02-19T11:32:19.099Z,0.85
2023-02-19T11:34:45.273Z,0.80
2023-02-19T11:37:12.951Z,1.23
2023-02-19T11:39:42.972Z,0.90
2023-02-19T11:42:20.866Z,1.40
2023-02-19T11:44:54.559Z,1.25
2023-02-19T11:47:32.782Z,1.08
2023-02-19T11:49:58.502Z,1.50
2023-02-19T11:52:43.588Z,1.23
2023-02-19T11:55:17.308Z,0.95
2023-02-19T11:57:47.273Z,0.80
2023-02-19T12:00:18.940Z,1.30
2023-02-19T12:03:13.288Z,0.68
2023-02-19T12:05:51.211Z,1.10
2023-02-19T12:08:39.270Z,0.95
2023-02-19T12:11:14.066Z,0.60
2023-02-19T12:14:01.804Z,0.80
2023-02-19T12:16:39.112Z,0.90
2023-02-19T12:19:20.384Z,1.30
2023-02-19T12:22:04.692Z,0.70
2023-02-19T12:24:49.358Z,1.00
2023-02-19T12:27:15.150Z,0.82
2023-02-19T12:29:47.757Z,0.90
2023-02-19T12:32:19.576Z,1.58
2023-02-19T12:35:16.715Z,1.30
2023-02-19T12:37:56.275Z,1.65
2023-02-19T12:40:42.030Z,1.75
2023-02-19T12:43:07.794Z,0.60
2023-02-19T12:45:39.720Z,0.95
2023-02-19T12:48:08.871Z,1.55
2023-02-19T12:50:35.187Z,0.82
2023-02-19T12:53:04.809Z,0.95
2023-02-19T12:55:33.926Z,1.65
2023-02-19T12:58:02.497Z,0.90
2023-02-19T13:00:28.359Z,0.57
2023-02-19T13:03:00.054Z,0.95
2023-02-19T13:05:51.515Z,0.80
2023-02-19T13:08:23.493Z,1.45
2023-02-19T13:11:09.841Z,0.90
2023-02-19T13:13:50.270Z,0.77
2023-02-19T13:16:18.908Z,0.93
2023-02-19T13:18:56.554Z,0.73
2023-02-19T13:21:43.561Z,0.80
2023-02-19T13:24:12.517Z,0.40
2023-02-19T13:26:45.297Z,1.95
2023-02-19T13:29:23.360Z,0.50
2023-02-19T13:31:49.282Z,0.60
2023-02-19T13:34:43.339Z,1.00
2023-02-19T13:37:10.692Z,0.75
2023-02-19T13:39:37.196Z,1.20
2023-02-19T13:42:03.490Z,0.60
2023-02-19T13:44:30.634Z,0.68
2023-02-19T13:46:56.536Z,1.05
2023-02-19T13:49:22.263Z,0.80
2023-02-19T13:51:52.108Z,0.88
2023-02-19T13:54:22.323Z,1.00
2023-02-19T13:56:48.500Z,0.85
2023-02-19T13:59:26.491Z,0.63
2023-02-19T14:01:55.311Z,0.82
2023-02-19T14:04:47.865Z,0.90
2023-02-19T14:07:13.597Z,0.90
2023-02-19T14:09:39.456Z,0.70
2023-02-19T14:12:17.955Z,0.93
2023-02-19T14:14:44.692Z,1.45
2023-02-19T14:17:17.035Z,1.13
2023-02-19T14:20:04.233Z,0.93
2023-02-19T14:22:50.852Z,1.33
2023-02-19T14:25:29.880Z,0.60
2023-02-19T14:28:15.067Z,0.95
2023-02-19T14:30:51.858Z,0.82
2023-02-19T14:33:20.653Z,0.80
2023-02-19T14:35:48.558Z,0.88
2023-02-19T14:38:20.344Z,1.83
2023-02-19T14:40:47.252Z,1.10
2023-02-19T14:43:14.871Z,0.70
2023-02-19T14:45:44.488Z,0.70
2023-02-19T14:48:16.845Z,0.50
2023-02-19T14:50:46.378Z,0.65
2023-02-19T14:53:14.258Z,1.02
2023-02-19T14:55:42.162Z,0.77
2023-02-19T14:58:16.761Z,1.20
2023-02-19T15:00:42.731Z,0.60
2023-02-19T15:03:25.154Z,0.57
2023-02-19T15:06:12.741Z,0.93
2023-02-19T15:08:41.792Z,0.70
2023-02-19T15:11:09.873Z,0.68
2023-02-19T15:13:36.271Z,0.60
2023-02-19T15:16:02.243Z,1.00
2023-02-19T15:18:29.388Z,0.73
2023-02-19T15:20:59.935Z,0.93
2023-02-19T15:23:26.935Z,0.70
2023-02-19T15:25:53.240Z,0.85
2023-02-19T15:28:19.118Z,0.80
2023-02-19T15:30:44.925Z,1.98
2023-02-19T15:33:15.916Z,0.90
2023-02-19T15:35:41.687Z,0.70
2023-02-19T15:38:11.774Z,0.80
2023-02-19T15:40:37.662Z,1.63
2023-02-19T15:43:04.403Z,0.95
2023-02-19T15:45:45.027Z,0.90
2023-02-19T15:48:16.135Z,0.60
2023-02-19T15:50:45.457Z,0.80
2023-02-19T15:53:16.288Z,1.33
2023-02-19T15:58:16.891Z,1.38
2023-02-19T16:00:48.950Z,0.88
2023-02-19T16:03:17.427Z,1.25
2023-02-19T16:05:56.972Z,0.57
2023-02-19T16:08:30.548Z,1.45
2023-02-19T16:10:58.268Z,0.82
2023-02-19T16:13:25.315Z,1.05
2023-02-19T16:15:58.678Z,1.00
2023-02-19T16:18:24.924Z,0.63
2023-02-19T16:20:50.885Z,0.80
2023-02-19T16:23:19.691Z,0.98
2023-02-19T16:25:45.939Z,1.00
2023-02-19T16:28:11.772Z,1.30
2023-02-19T16:30:37.765Z,1.30
2023-02-19T16:33:19.124Z,1.42
2023-02-19T16:36:13.135Z,1.10
2023-02-19T16:38:38.951Z,1.23
2023-02-19T16:41:06.479Z,1.00
2023-02-19T16:43:38.709Z,1.10
2023-02-19T16:46:07.045Z,1.60
2023-02-19T16:48:33.148Z,1.15
2023-02-19T16:50:59.149Z,0.93
2023-02-19T16:53:25.492Z,1.30
2023-02-19T16:55:51.873Z,0.82
2023-02-19T16:58:17.738Z,1.42
2023-02-19T17:00:43.712Z,2.95
2023-02-19T17:03:18.353Z,1.98
2023-02-19T17:05:44.314Z,2.28
2023-02-19T17:08:19.316Z,1.77
2023-02-19T17:10:45.370Z,2.78
2023-02-19T17:13:11.250Z,2.65
2023-02-19T17:15:37.238Z,2.70
2023-02-19T17:18:03.230Z,2.47
2023-02-19T17:20:29.849Z,2.17
2023-02-19T17:22:56.088Z,1.52
2023-02-19T17:25:21.872Z,2.70
2023-02-19T17:27:47.956Z,1.65
2023-02-19T17:30:30.537Z,2.50
2023-02-19T17:32:56.355Z,1.65
2023-02-19T17:35:27.394Z,1.80
2023-02-19T17:37:55.723Z,1.58
2023-02-19T17:40:32.349Z,1.40
2023-02-19T17:42:59.280Z,1.35
2023-02-19T17:45:25.620Z,1.73
2023-02-19T17:47:51.662Z,1.40
2023-02-19T17:50:19.036Z,1.52
2023-02-19T17:52:44.992Z,2.22
2023-02-19T17:55:11.678Z,1.35
2023-02-19T17:57:37.621Z,1.48
2023-02-19T18:00:04.473Z,1.75
2023-02-19T18:02:30.277Z,2.00
2023-02-19T18:04:56.052Z,2.53
2023-02-19T18:07:21.898Z,3.20
2023-02-19T18:09:47.866Z,2.40
2023-02-19T18:12:13.696Z,2.13
2023-02-19T18:14:39.417Z,2.55
2023-02-19T18:17:05.413Z,2.92
2023-02-19T18:19:32.012Z,2.92
2023-02-19T18:21:57.813Z,2.45
2023-02-19T18:24:23.555Z,2.90
2023-02-19T18:26:49.275Z,2.10
2023-02-19T18:29:15.157Z,2.10
2023-02-19T18:31:41.219Z,2.83
2023-02-19T18:34:14.895Z,2.35
2023-02-19T18:36:43.284Z,2.00
2023-02-19T18:39:09.396Z,2.28
2023-02-19T18:41:35.337Z,2.20
2023-02-19T18:44:01.136Z,3.78
2023-02-19T18:46:26.915Z,1.80
2023-02-19T18:48:52.680Z,2.17
2023-02-19T18:51:20.677Z,2.53
2023-02-19T18:53:46.509Z,2.63
2023-02-19T18:56:12.376Z,1.95
2023-02-19T18:58:38.234Z,2.47
2023-02-19T19:01:04.380Z,2.58
2023-02-19T19:03:30.879Z,2.58
2023-02-19T19:05:56.891Z,2.38
2023-02-19T19:08:22.836Z,2.25
2023-02-19T19:10:48.696Z,2.78
2023-02-19T19:13:14.695Z,2.67
2023-02-19T19:15:40.754Z,1.50
2023-02-19T19:18:06.846Z,2.50
2023-02-19T19:20:32.890Z,2.47
2023-02-19T19:22:59.336Z,3.35
2023-02-19T19:25:25.265Z,2.50
2023-02-19T19:27:54.298Z,2.15
2023-02-19T19:30:20.505Z,2.13
2023-02-19T19:32:49.655Z,2.08
2023-02-19T19:35:21.723Z,2.63
2023-02-19T19:37:48.069Z,2.00
2023-02-19T19:40:15.741Z,1.63
2023-02-19T19:42:43.015Z,1.88
2023-02-19T19:45:11.167Z,2.20
2023-02-19T19:47:37.380Z,2.30
2023-02-19T19:50:03.193Z,1.95
2023-02-19T19:52:29.015Z,2.25
2023-02-19T19:54:55.241Z,2.03
2023-02-19T19:57:20.987Z,1.90
2023-02-19T19:59:50.800Z,2.13
2023-02-19T20:02:16.964Z,1.63
2023-02-19T20:04:42.769Z,1.77
2023-02-19T20:07:08.727Z,1.40
2023-02-19T20:09:34.603Z,1.58
2023-02-19T20:12:01.394Z,1.95
2023-02-19T20:14:27.163Z,1.52
2023-02-19T20:16:54.447Z,1.30
2023-02-19T20:19:20.390Z,1.70
2023-02-19T20:21:46.944Z,1.73
2023-02-19T20:24:16.779Z,1.50
2023-02-19T20:26:43.193Z,1.50
2023-02-19T20:29:09.776Z,1.63
2023-02-19T20:31:38.976Z,2.00
2023-02-19T20:34:08.068Z,1.95
2023-02-19T20:36:40.943Z,1.42
2023-02-19T20:39:06.691Z,1.40
2023-02-19T20:41:32.408Z,1.45
2023-02-19T20:43:58.162Z,1.45
2023-02-19T20:46:23.972Z,1.55
2023-02-19T20:48:51.893Z,2.33
2023-02-19T20:51:17.818Z,1.48
2023-02-19T20:53:43.642Z,1.30
2023-02-19T20:56:10.995Z,1.37
2023-02-19T20:58:37.034Z,3.50
2023-02-19T21:01:02.900Z,1.90
2023-02-19T21:03:28.815Z,1.60
2023-02-19T21:05:54.531Z,1.20
2023-02-19T21:08:20.642Z,1.50
2023-02-19T21:10:46.505Z,1.55
2023-02-19T21:13:12.580Z,1.33
2023-02-19T21:15:38.349Z,1.83
2023-02-19T21:18:05.261Z,1.50
2023-02-19T21:20:31.159Z,1.50
2023-02-19T21:22:56.911Z,1.77
2023-02-19T21:25:22.792Z,1.60
2023-02-19T21:27:48.525Z,1.63
2023-02-19T21:30:14.494Z,2.13
2023-02-19T21:32:40.324Z,2.33
2023-02-19T21:35:06.254Z,1.70
2023-02-19T21:37:32.278Z,1.60
2023-02-19T21:39:59.743Z,2.33
2023-02-19T21:42:25.567Z,1.63
2023-02-19T21:44:51.358Z,2.20
2023-02-19T21:47:17.078Z,1.57
2023-02-19T21:49:42.900Z,1.80
2023-02-19T21:52:09.217Z,1.97
2023-02-19T21:54:35.008Z,1.63
2023-02-19T21:57:01.481Z,1.37
2023-02-19T21:59:27.283Z,1.93
2023-02-19T22:01:53.235Z,1.60
2023-02-19T22:04:20.890Z,2.15
2023-02-19T22:06:46.747Z,1.60
2023-02-19T22:09:13.169Z,1.70
2023-02-19T22:11:38.963Z,2.33
2023-02-19T22:14:04.879Z,2.28
2023-02-19T22:16:30.676Z,2.72
2023-02-19T22:18:57.584Z,1.83
2023-02-19T22:21:24.316Z,1.57
2023-02-19T22:23:51.160Z,1.50
2023-02-19T22:26:23.050Z,1.70
2023-02-19T22:28:49.271Z,1.50
2023-02-19T22:31:15.581Z,1.93
2023-02-19T22:33:41.437Z,1.65
2023-02-19T22:36:17.423Z,2.17
2023-02-19T22:38:43.222Z,2.55
2023-02-19T22:41:09.259Z,1.95
2023-02-19T22:43:34.986Z,2.25
2023-02-19T22:46:00.901Z,1.70
2023-02-19T22:48:30.116Z,1.70
2023-02-19T22:50:58.106Z,2.15
2023-02-19T22:53:24.054Z,3.38
2023-02-19T22:55:50.480Z,1.58
2023-02-19T22:58:16.269Z,2.35
2023-02-19T23:00:42.013Z,1.75
2023-02-19T23:03:07.739Z,2.85
2023-02-19T23:05:33.485Z,2.05
2023-02-19T23:07:59.335Z,3.50
2023-02-19T23:10:26.018Z,2.28
2023-02-19T23:12:51.897Z,2.50
2023-02-19T23:15:17.669Z,2.00
2023-02-19T23:17:43.370Z,2.08
2023-02-19T23:20:09.222Z,2.22
2023-02-19T23:22:35.147Z,2.15
2023-02-19T23:25:00.890Z,1.95
2023-02-19T23:27:27.827Z,2.10
2023-02-19T23:29:54.069Z,2.13
2023-02-19T23:32:20.391Z,2.67
2023-02-19T23:34:47.349Z,2.70
2023-02-19T23:37:13.575Z,3.38
2023-02-19T23:39:39.282Z,2.90
2023-02-19T23:42:05.029Z,2.10
2023-02-19T23:44:30.816Z,2.40
2023-02-19T23:46:56.535Z,2.53
2023-02-19T23:49:22.720Z,2.72
2023-02-19T23:51:48.578Z,3.17
2023-02-19T23:54:14.340Z,3.10
2023-02-19T23:56:40.069Z,3.20
2023-02-19T23:59:05.828Z,3.63
